createdAt,value
2022-10-30T00:00:22.460Z,15.90
2022-10-30T00:05:30.348Z,15.90
2022-10-30T00:10:38.125Z,15.90
2022-10-30T00:15:56.031Z,15.90
2022-10-30T00:21:15.424Z,16.00
2022-10-30T00:26:25.989Z,16.10
2022-10-30T00:31:33.184Z,16.10
2022-10-30T00:36:40.095Z,15.80
2022-10-30T00:41:47.254Z,15.60
2022-10-30T00:46:54.788Z,15.50
2022-10-30T00:52:02.995Z,15.60
2022-10-30T00:57:11.892Z,15.70
2022-10-30T01:02:21.714Z,15.70
2022-10-30T01:07:29.256Z,15.80
2022-10-30T01:12:36.184Z,15.60
2022-10-30T01:17:59.708Z,15.70
2022-10-30T01:23:23.204Z,15.90
2022-10-30T01:28:48.994Z,16.10
2022-10-30T01:34:21.370Z,16.10
2022-10-30T01:39:35.428Z,16.00
2022-10-30T01:44:42.832Z,16.00
2022-10-30T01:50:06.466Z,16.10
2022-10-30T01:55:37.469Z,16.10
2022-10-30T02:00:47.492Z,16.00
2022-10-30T02:05:55.647Z,15.90
2022-10-30T02:11:03.082Z,15.90
2022-10-30T02:16:11.639Z,15.90
2022-10-30T02:21:18.982Z,16.10
2022-10-30T02:26:25.990Z,15.90
2022-10-30T02:31:32.771Z,15.80
2022-10-30T02:36:39.547Z,16.00
2022-10-30T02:41:46.380Z,15.90
2022-10-30T02:46:53.143Z,16.00
2022-10-30T02:51:59.906Z,16.00
2022-10-30T02:57:06.743Z,16.00
2022-10-30T03:02:13.596Z,16.10
2022-10-30T03:07:20.344Z,16.00
2022-10-30T03:12:27.226Z,16.00
2022-10-30T03:17:33.990Z,16.00
2022-10-30T03:22:41.056Z,16.20
2022-10-30T03:27:48.108Z,16.00
2022-10-30T03:32:55.039Z,15.90
2022-10-30T03:38:01.890Z,15.90
2022-10-30T03:43:09.085Z,16.00
2022-10-30T03:48:15.870Z,15.90
2022-10-30T03:53:24.278Z,15.90
2022-10-30T03:58:32.900Z,15.90
2022-10-30T04:03:40.195Z,15.70
2022-10-30T04:08:47.629Z,15.90
2022-10-30T04:13:54.349Z,15.80
2022-10-30T04:19:01.921Z,15.80
2022-10-30T04:24:09.701Z,15.80
2022-10-30T04:29:16.355Z,15.60
2022-10-30T04:34:23.070Z,15.80
2022-10-30T04:39:29.730Z,15.90
2022-10-30T04:44:36.450Z,15.80
2022-10-30T04:49:43.193Z,15.80
2022-10-30T04:54:51.443Z,15.70
2022-10-30T05:00:04.385Z,15.70
2022-10-30T05:05:16.593Z,15.60
2022-10-30T05:10:26.775Z,15.40
2022-10-30T05:15:36.968Z,15.40
2022-10-30T05:20:59.775Z,15.30
2022-10-30T05:26:04.810Z,15.50
2022-10-30T05:31:12.126Z,15.20
2022-10-30T05:36:19.909Z,15.30
2022-10-30T05:41:26.609Z,15.20
2022-10-30T05:46:33.296Z,15.40
2022-10-30T05:51:40.871Z,15.50
2022-10-30T05:56:47.551Z,15.40
2022-10-30T06:01:54.233Z,15.40
2022-10-30T06:07:01.040Z,15.40
2022-10-30T06:12:10.191Z,15.70
2022-10-30T06:17:17.532Z,15.70
2022-10-30T06:22:25.361Z,15.80
2022-10-30T06:27:32.220Z,15.90
2022-10-30T06:32:39.494Z,15.80
2022-10-30T06:37:53.219Z,15.80
2022-10-30T06:43:01.977Z,15.80
2022-10-30T06:48:10.733Z,15.90
2022-10-30T06:53:18.771Z,16.20
2022-10-30T06:58:28.533Z,16.10
2022-10-30T07:03:36.827Z,16.10
2022-10-30T07:08:43.781Z,16.10
2022-10-30T07:13:52.344Z,16.00
2022-10-30T07:19:03.662Z,15.90
2022-10-30T07:24:11.847Z,16.10
2022-10-30T07:29:21.136Z,16.20
2022-10-30T07:34:31.312Z,16.50
2022-10-30T07:39:40.425Z,16.40
2022-10-30T07:44:47.084Z,16.50
2022-10-30T07:49:54.678Z,16.60
2022-10-30T07:55:01.776Z,16.70
2022-10-30T08:00:12.831Z,16.70
2022-10-30T08:05:25.547Z,16.80
2022-10-30T08:10:31.798Z,16.90
2022-10-30T08:15:40.127Z,16.90
2022-10-30T08:20:51.251Z,16.90
2022-10-30T08:26:03.715Z,17.00
2022-10-30T08:31:12.905Z,17.00
2022-10-30T08:36:21.052Z,17.10
2022-10-30T08:41:27.772Z,17.60
2022-10-30T08:46:35.253Z,17.40
2022-10-30T08:51:42.764Z,17.20
2022-10-30T08:56:50.409Z,17.20
2022-10-30T09:01:57.186Z,17.20
2022-10-30T09:07:08.848Z,17.30
2022-10-30T09:12:14.529Z,17.40
2022-10-30T09:17:21.526Z,17.40
2022-10-30T09:22:29.543Z,17.50
2022-10-30T09:27:40.658Z,17.50
2022-10-30T09:32:51.191Z,17.60
2022-10-30T09:37:57.649Z,17.70
2022-10-30T09:43:35.222Z,17.80
2022-10-30T09:48:56.235Z,17.80
2022-10-30T09:54:32.135Z,17.90
2022-10-30T10:00:02.720Z,17.90
2022-10-30T10:05:41.765Z,17.80
2022-10-30T10:10:53.229Z,17.80
2022-10-30T10:16:08.109Z,17.90
2022-10-30T10:21:38.569Z,17.90
2022-10-30T10:26:53.674Z,17.90
2022-10-30T10:32:25.230Z,18.00
2022-10-30T10:37:42.417Z,18.10
2022-10-30T10:43:14.553Z,18.20
2022-10-30T10:48:28.735Z,18.10
2022-10-30T10:53:49.828Z,18.30
2022-10-30T10:59:03.688Z,18.40
2022-10-30T11:04:45.165Z,18.40
2022-10-30T11:09:58.183Z,18.60
2022-10-30T11:15:21.463Z,18.50
2022-10-30T11:21:14.763Z,18.50
2022-10-30T11:26:25.973Z,18.80
2022-10-30T11:31:41.070Z,18.60
2022-10-30T11:36:53.134Z,18.80
2022-10-30T11:42:14.664Z,18.80
2022-10-30T11:47:27.439Z,19.00
2022-10-30T11:52:41.732Z,18.90
2022-10-30T11:57:54.891Z,19.00
2022-10-30T12:03:04.025Z,18.90
2022-10-30T12:08:19.398Z,19.10
2022-10-30T12:13:32.764Z,19.10
2022-10-30T12:18:46.072Z,19.40
2022-10-30T12:24:09.368Z,19.90
2022-10-30T12:29:21.690Z,19.70
2022-10-30T12:34:44.583Z,19.50
2022-10-30T12:40:01.661Z,19.40
2022-10-30T12:45:48.779Z,19.40
2022-10-30T12:51:12.369Z,19.40
2022-10-30T12:56:26.414Z,19.40
2022-10-30T13:02:03.782Z,19.40
2022-10-30T13:07:49.088Z,19.40
2022-10-30T13:13:01.598Z,19.50
2022-10-30T13:18:27.909Z,19.40
2022-10-30T13:23:41.933Z,19.40
2022-10-30T13:29:38.563Z,19.30
2022-10-30T13:35:37.616Z,19.30
2022-10-30T13:41:05.458Z,19.40
2022-10-30T13:46:25.895Z,19.40
2022-10-30T13:51:52.728Z,19.30
2022-10-30T13:57:04.614Z,19.40
2022-10-30T14:02:38.218Z,19.30
2022-10-30T14:08:13.010Z,19.30
2022-10-30T14:13:33.094Z,19.30
2022-10-30T14:19:02.771Z,19.20
2022-10-30T14:24:31.150Z,19.10
2022-10-30T14:29:45.251Z,19.10
2022-10-30T14:35:00.176Z,19.00
2022-10-30T14:40:49.448Z,19.00
2022-10-30T14:46:00.652Z,18.90
2022-10-30T14:51:15.312Z,18.90
2022-10-30T14:56:51.541Z,18.80
2022-10-30T15:02:20.399Z,18.70
2022-10-30T15:07:45.355Z,18.50
2022-10-30T15:13:24.656Z,18.50
2022-10-30T15:18:32.957Z,18.30
2022-10-30T15:23:45.324Z,18.30
2022-10-30T15:29:00.525Z,18.20
2022-10-30T15:34:18.644Z,18.20
2022-10-30T15:39:27.217Z,18.10
2022-10-30T15:44:38.698Z,17.90
2022-10-30T15:49:59.480Z,17.80
2022-10-30T15:55:11.138Z,17.50
2022-10-30T16:00:25.872Z,17.30
2022-10-30T16:05:33.128Z,17.20
2022-10-30T16:10:44.736Z,17.20
2022-10-30T16:15:53.557Z,17.20
2022-10-30T16:21:07.643Z,17.00
2022-10-30T16:26:39.971Z,17.00
2022-10-30T16:31:52.327Z,16.80
2022-10-30T16:37:00.167Z,16.70
2022-10-30T16:42:08.967Z,16.60
2022-10-30T16:47:44.250Z,16.60
2022-10-30T16:52:52.369Z,16.60
2022-10-30T16:58:04.548Z,16.50
2022-10-30T17:03:37.255Z,16.50
2022-10-30T17:08:48.314Z,16.40
2022-10-30T17:14:01.083Z,16.30
2022-10-30T17:19:36.185Z,16.20
2022-10-30T17:24:47.641Z,16.20
2022-10-30T17:29:56.168Z,16.30
2022-10-30T17:35:16.544Z,16.30
2022-10-30T17:40:25.721Z,16.20
2022-10-30T17:45:33.568Z,16.30
2022-10-30T17:50:45.765Z,16.30
2022-10-30T17:56:24.974Z,16.30
2022-10-30T18:01:34.858Z,16.30
2022-10-30T18:06:45.431Z,16.10
2022-10-30T18:11:52.331Z,15.90
2022-10-30T18:17:01.494Z,16.00
2022-10-30T18:22:12.122Z,16.30
2022-10-30T18:27:21.549Z,16.50
2022-10-30T18:32:29.064Z,16.30
2022-10-30T18:37:36.350Z,16.40
2022-10-30T18:42:43.635Z,16.30
2022-10-30T18:47:51.631Z,16.00
2022-10-30T18:52:59.753Z,15.90
2022-10-30T18:58:08.280Z,15.70
2022-10-30T19:03:15.580Z,15.70
2022-10-30T19:08:22.927Z,15.80
2022-10-30T19:13:29.837Z,15.90
2022-10-30T19:18:37.534Z,15.70
2022-10-30T19:23:44.671Z,15.70
2022-10-30T19:28:51.584Z,15.70
2022-10-30T19:33:58.834Z,15.80
2022-10-30T19:39:12.725Z,15.70
2022-10-30T19:44:21.319Z,15.80
2022-10-30T19:49:28.599Z,15.80
2022-10-30T19:54:35.864Z,15.70
2022-10-30T19:59:43.028Z,15.70
2022-10-30T20:04:51.388Z,15.70
2022-10-30T20:09:58.274Z,15.80
2022-10-30T20:15:05.557Z,16.00
2022-10-30T20:20:22.465Z,16.00
2022-10-30T20:25:30.510Z,15.90
2022-10-30T20:30:38.089Z,15.80
2022-10-30T20:35:45.362Z,15.70
2022-10-30T20:40:52.243Z,15.60
2022-10-30T20:46:02.608Z,15.60
2022-10-30T20:51:11.315Z,15.60
2022-10-30T20:56:18.613Z,15.70
2022-10-30T21:01:25.688Z,15.80
2022-10-30T21:06:33.800Z,16.00
2022-10-30T21:11:40.874Z,15.90
2022-10-30T21:16:47.972Z,15.80
2022-10-30T21:21:55.067Z,15.80
2022-10-30T21:27:02.093Z,15.90
2022-10-30T21:32:09.302Z,16.00
2022-10-30T21:37:16.561Z,16.30
2022-10-30T21:42:24.013Z,16.30
2022-10-30T21:47:31.283Z,16.40
2022-10-30T21:52:38.332Z,15.90
2022-10-30T21:57:45.548Z,16.00
2022-10-30T22:02:54.033Z,15.80
2022-10-30T22:08:01.518Z,15.60
2022-10-30T22:13:08.851Z,15.60
2022-10-30T22:18:16.021Z,15.60
2022-10-30T22:23:22.878Z,15.70
2022-10-30T22:28:32.437Z,15.70
2022-10-30T22:33:40.161Z,15.50
2022-10-30T22:38:48.288Z,15.70
2022-10-30T22:43:57.615Z,15.50
2022-10-30T22:49:04.699Z,15.50
2022-10-30T22:54:13.943Z,15.40
2022-10-30T22:59:20.969Z,15.60
2022-10-30T23:04:28.339Z,15.80
2022-10-30T23:09:35.712Z,15.50
2022-10-30T23:14:42.742Z,15.70
2022-10-30T23:19:49.736Z,15.70
2022-10-30T23:24:56.697Z,15.50
2022-10-30T23:30:04.261Z,15.30
2022-10-30T23:35:11.471Z,15.30
2022-10-30T23:40:18.508Z,15.40
2022-10-30T23:45:25.764Z,15.50
2022-10-30T23:50:32.699Z,15.60
2022-10-30T23:55:39.679Z,15.50
